Data for 03/09/2006

Time Sea-Level Adjusted Pressure Absolute Pressure Temperature Relative Humidity Dew Point   
(mb) (inHg) (mb) (inHg) (C) (F) (%) (C) (F)
00:05 998 29.47 827 24.42 2 35.6 49 -7.6 18.4
00:10 998 29.47 827 24.42 2.1 35.9 49 -7.6 18.4
00:15 998 29.47 827 24.42 2.2 35.9 48 -7.6 18.3
00:20 998 29.47 827 24.42 2.2 35.9 48 -7.6 18.3
00:25 998 29.47 827 24.42 2.1 35.8 49 -7.4 18.6
00:30 998 29.47 827 24.42 2 35.6 50 -7.3 18.8
00:35 998 29.47 827 24.42 2 35.5 52 -7 19.5
00:40 998 29.47 827 24.42 1.5 34.8 54 -6.8 19.8
00:45 998 29.47 827 24.42 1.5 34.6 54 -7 19.4
00:50 998 29.47 827 24.42 1.5 34.6 54 -6.8 19.7
00:55 997 29.44 827 24.42 1.6 34.9 53 -7 19.5
01:00 997 29.44 827 24.42 1.7 35.1 50 -7.7 18.1
01:05 997 29.44 826 24.39 2 35.5 50 -7.3 18.8
01:10 997 29.44 826 24.39 1.9 35.5 50 -7.4 18.7
01:15 997 29.44 826 24.39 2 35.6 50 -7.4 18.7
01:20 997 29.44 826 24.39 2 35.7 51 -7.1 19.1
01:25 997 29.44 826 24.39 2.1 35.8 51 -6.9 19.6
01:30 997 29.44 826 24.39 1.9 35.5 52 -6.8 19.8
01:35 997 29.44 826 24.39 2 35.5 53 -6.7 19.9
01:40 997 29.44 826 24.39 1.9 35.4 53 -6.6 20.2
01:45 997 29.44 826 24.39 1.7 35.1 55 -6.4 20.4
01:50 997 29.44 826 24.39 1 33.9 58 -6.4 20.4
01:55 997 29.44 826 24.39 0.7 33.2 59 -6.4 20.5
02:00 997 29.44 826 24.39 0.5 33 60 -6.4 20.6
02:05 997 29.44 826 24.39 0.6 33.1 60 -6.3 20.6
02:10 997 29.44 826 24.39 0.7 33.2 60 -6.3 20.7
02:15 997 29.44 826 24.39 0.7 33.2 59 -6.4 20.5
02:20 997 29.44 826 24.39 0.7 33.3 59 -6.4 20.6
02:25 997 29.44 826 24.39 0.8 33.5 59 -6.2 20.8
02:30 997 29.44 826 24.39 0.9 33.5 58 -6.4 20.4
02:35 996 29.41 826 24.39 1 33.8 58 -6.3 20.7
02:40 996 29.41 826 24.39 1.3 34.3 55 -6.7 20
02:45 996 29.41 826 24.39 1.4 34.6 55 -6.7 19.9
02:50 996 29.41 825 24.36 1.5 34.7 53 -7.1 19.3
02:55 996 29.41 825 24.36 1.8 35.3 52 -7.1 19.1
03:00 996 29.41 825 24.36 2 35.6 52 -7 19.5
03:05 996 29.41 825 24.36 2.1 35.7 50 -7.3 18.8
03:10 996 29.41 825 24.36 2.1 35.8 51 -7 19.3
03:15 996 29.41 825 24.36 2 35.6 52 -6.9 19.5
03:20 995 29.38 825 24.36 1.9 35.4 51 -7.2 19
03:25 995 29.38 825 24.36 1.9 35.4 50 -7.5 18.5
03:30 995 29.38 825 24.36 2 35.6 49 -7.5 18.4
03:35 995 29.38 824 24.33 2 35.6 50 -7.3 18.8
03:40 995 29.38 824 24.33 1.9 35.4 49 -7.7 18.2
03:45 995 29.38 824 24.33 2 35.6 49 -7.7 18.2
03:50 995 29.38 824 24.33 2 35.6 49 -7.7 18.2
03:55 995 29.38 824 24.33 2.1 35.7 49 -7.5 18.4
04:00 995 29.38 824 24.33 2 35.6 49 -7.5 18.4
04:05 995 29.38 824 24.33 2 35.6 50 -7.4 18.7
04:10 995 29.38 824 24.33 2 35.6 51 -7 19.3
04:15 995 29.38 824 24.33 1.8 35.3 50 -7.5 18.5
04:20 995 29.38 824 24.33 1.9 35.4 49 -7.7 18.2
04:25 995 29.38 824 24.33 2 35.6 50 -7.3 18.9
04:30 995 29.38 824 24.33 1.9 35.4 52 -7 19.5
04:35 994 29.35 824 24.33 1.7 35 52 -7.1 19.2
04:40 994 29.35 824 24.33 1.6 35 53 -6.9 19.6
04:45 994 29.35 824 24.33 1.5 34.7 55 -6.6 20.2
04:50 994 29.35 824 24.33 1.4 34.5 54 -7 19.3
04:55 994 29.35 823 24.3 1.6 34.9 53 -7.1 19.3
05:00 994 29.35 823 24.3 1.5 34.8 55 -6.7 20
05:05 994 29.35 823 24.3 1.4 34.5 53 -7.2 19.1
05:10 994 29.35 823 24.3 1.5 34.7 52 -7.3 18.8
05:15 994 29.35 823 24.3 1.5 34.6 53 -7 19.4
05:20 994 29.35 823 24.3 1.4 34.5 54 -7 19.4
05:25 994 29.35 823 24.3 1.3 34.3 51 -7.6 18.2
05:30 994 29.35 823 24.3 1.4 34.5 51 -7.7 18.1
05:35 994 29.35 823 24.3 1.3 34.3 51 -7.8 18
05:40 994 29.35 823 24.3 1.3 34.4 49 -8.2 17.2
05:45 994 29.35 823 24.3 1.3 34.3 50 -8.1 17.4
05:50 994 29.35 823 24.3 1.3 34.4 50 -8.1 17.4
05:55 994 29.35 823 24.3 1.2 34.1 49 -8.3 17.1
06:00 994 29.35 823 24.3 1.1 34 49 -8.5 16.7
06:05 994 29.35 823 24.3 1.1 33.9 49 -8.5 16.8
06:10 994 29.35 823 24.3 1.1 33.9 48 -8.9 16.1
06:15 994 29.35 823 24.3 1.1 33.9 49 -8.5 16.7
06:20 994 29.35 823 24.3 0.8 33.5 50 -8.4 16.8
06:25 994 29.35 823 24.3 1 33.8 47 -9 15.7
06:30 994 29.35 823 24.3 1.3 34.4 43 -9.8 14.4
06:35 995 29.38 824 24.33 1.1 34.1 65 -4.8 23.4
06:40 996 29.41 825 24.36 -1.9 28.6 82 -4.5 23.8
06:45 996 29.41 825 24.36 -3.4 25.9 90 -4.8 23.4
06:50 996 29.41 825 24.36 -3.8 25.2 93 -4.8 23.4
06:55 996 29.41 826 24.39 -4 24.8 94 -4.8 23.3
07:00 997 29.44 826 24.39 -4.1 24.6 94 -4.9 23.2
07:05 997 29.44 826 24.39 -4.3 24.3 95 -5 23.1
07:10 997 29.44 826 24.39 -4.3 24.2 96 -4.9 23.2
07:15 997 29.44 827 24.42 -4.4 24.2 94 -5.1 22.8
07:20 998 29.47 827 24.42 -4.7 23.5 95 -5.4 22.3
07:25 998 29.47 827 24.42 -4.8 23.4 95 -5.5 22.1
07:30 998 29.47 827 24.42 -4.9 23.3 95 -5.6 21.9
07:35 998 29.47 828 24.45 -4.8 23.3 95 -5.6 22
07:40 999 29.5 828 24.45 -4.8 23.3 95 -5.6 22
07:45 999 29.5 828 24.45 -4.7 23.6 95 -5.4 22.2
07:50 999 29.5 828 24.45 -4.6 23.7 95 -5.4 22.3
07:55 999 29.5 828 24.45 -4.6 23.8 94 -5.3 22.4
08:00 999 29.5 828 24.45 -4.5 23.9 94 -5.4 22.3
08:05 999 29.5 828 24.45 -4.5 23.9 92 -5.6 21.9
08:10 999 29.5 828 24.45 -4.4 24 93 -5.4 22.2
08:15 999 29.5 828 24.45 -4.5 24 90 -5.9 21.4
08:20 999 29.5 828 24.45 -4.6 23.7 87 -6.5 20.4
08:25 999 29.5 828 24.45 -4.4 24 82 -7 19.4
08:30 999 29.5 828 24.45 -4.3 24.3 80 -7.2 19.1
08:35 999 29.5 828 24.45 -4.2 24.4 78 -7.5 18.5
08:40 999 29.5 828 24.45 -4.1 24.6 71 -8.6 16.5
08:45 999 29.5 828 24.45 -4 24.9 69 -8.9 16
08:50 999 29.5 828 24.45 -3.8 25.2 66 -9.3 15.2
08:55 999 29.5 828 24.45 -3.6 25.5 61 -10.1 13.8
09:00 999 29.5 828 24.45 -3.4 25.9 59 -10.3 13.4
09:05 999 29.5 828 24.45 -3.3 26.1 57 -10.7 12.7
09:10 999 29.5 828 24.45 -3.4 25.9 55 -11.3 11.7
09:15 999 29.5 828 24.45 -3.5 25.7 57 -10.8 12.5
09:20 999 29.5 828 24.45 -3.5 25.7 57 -10.9 12.3
09:25 999 29.5 828 24.45 -3.6 25.5 65 -9.2 15.4
09:30 999 29.5 828 24.45 -3.9 25 71 -8.5 16.8
09:35 999 29.5 828 24.45 -4.1 24.7 64 -9.9 14.1
09:40 999 29.5 828 24.45 -3.6 25.5 50 -12.5 9.5
09:45 999 29.5 828 24.45 -3.3 26.1 47 -13 8.6
09:50 999 29.5 828 24.45 -3.3 26 46 -13.2 8.2
09:55 999 29.5 828 24.45 -3.2 26.2 46 -13.2 8.3
10:00 999 29.5 828 24.45 -3.1 26.5 47 -13 8.6
10:05 999 29.5 828 24.45 -3 26.7 46 -13 8.6
10:10 999 29.5 828 24.45 -2.9 26.9 45 -13.3 8
10:15 999 29.5 828 24.45 -3 26.7 42 -14.2 6.4
10:20 999 29.5 828 24.45 -3.1 26.5 41 -14.6 5.8
10:25 999 29.5 828 24.45 -3.2 26.2 40 -14.9 5.1
10:30 999 29.5 828 24.45 -3.3 26.1 38 -15.6 3.9
10:35 999 29.5 828 24.45 -3.3 26 40 -15.2 4.6
10:40 999 29.5 828 24.45 -3.1 26.4 36 -16.2 2.8
10:45 999 29.5 828 24.45 -2.9 26.8 36 -16.1 3
10:50 999 29.5 828 24.45 -2.7 27.1 35 -16.3 2.7
10:55 999 29.5 828 24.45 -2.4 27.7 35 -15.9 3.4
11:00 999 29.5 828 24.45 -2.3 27.8 37 -15.3 4.5
11:05 999 29.5 828 24.45 -2 28.3 37 -14.8 5.3
11:10 999 29.5 828 24.45 -1.6 29.1 36 -14.9 5.1
11:15 999 29.5 828 24.45 -1.1 30 34 -15.2 4.6
11:20 999 29.5 828 24.45 -1 30.2 31 -16.1 3
11:25 999 29.5 828 24.45 -0.8 30.5 27 -17.8 0
11:30 999 29.5 828 24.45 -0.6 30.8 26 -18.1 -0.5
11:35 999 29.5 828 24.45 -0.8 30.6 26 -18.1 -0.5
11:40 999 29.5 828 24.45 -0.9 30.3 28 -17.4 0.8
11:45 999 29.5 828 24.45 -1.5 29.3 27 -18.3 -0.9
11:50 998 29.47 828 24.45 -1.5 29.2 28 -17.7 0.2
11:55 998 29.47 828 24.45 -1 30.1 30 -16.7 1.9
12:00 998 29.47 828 24.45 -0.6 30.9 29 -16.8 1.8
12:05 998 29.47 828 24.45 -1.3 29.6 28 -17.8 -0.1
12:10 999 29.5 828 24.45 -1.7 29 28 -18 -0.4
12:15 998 29.47 828 24.45 -2 28.4 27 -18.6 -1.4
12:20 998 29.47 828 24.45 -2 28.4 26 -19 -2.2
12:25 998 29.47 828 24.45 -1.7 28.9 28 -18.2 -0.7
12:30 998 29.47 828 24.45 -1.4 29.5 29 -17.2 1
12:35 998 29.47 828 24.45 -1.5 29.3 28 -17.7 0.1
12:40 998 29.47 828 24.45 -1.7 29 29 -17.5 0.5
12:45 998 29.47 828 24.45 -1.6 29.2 26 -18.9 -2.1
12:50 998 29.47 828 24.45 -1.4 29.4 27 -18.2 -0.7
12:55 998 29.47 827 24.42 -1.5 29.4 28 -17.7 0.1
13:00 998 29.47 827 24.42 -1.2 29.8 26 -18.5 -1.3
13:05 998 29.47 827 24.42 -1.3 29.6 28 -17.5 0.5
13:10 998 29.47 827 24.42 -1.1 30 28 -17.5 0.5
13:15 998 29.47 827 24.42 -1.5 29.4 26 -18.8 -1.8
13:20 998 29.47 827 24.42 -1.8 28.8 26 -18.7 -1.7
13:25 998 29.47 827 24.42 -1.7 28.9 27 -18.3 -1
13:30 998 29.47 827 24.42 -1.5 29.2 26 -18.7 -1.6
13:35 998 29.47 827 24.42 -2 28.5 24 -19.8 -3.6
13:40 998 29.47 827 24.42 -1.9 28.6 24 -20.2 -4.4
13:45 998 29.47 827 24.42 -2 28.3 26 -19.2 -2.5
13:50 998 29.47 827 24.42 -1.9 28.7 26 -19.1 -2.3
13:55 998 29.47 827 24.42 -2.3 27.9 25 -20 -4
14:00 998 29.47 827 24.42 -2.1 28.3 25 -19.7 -3.5
14:05 998 29.47 827 24.42 -1.6 29.2 26 -18.7 -1.6
14:10 998 29.47 827 24.42 -1.8 28.8 24 -19.7 -3.4
14:15 998 29.47 827 24.42 -2.1 28.3 24 -20.1 -4.2
14:20 998 29.47 827 24.42 -1.8 28.8 23 -20.2 -4.3
14:25 998 29.47 827 24.42 -1.2 29.9 24 -19.2 -2.5
14:30 998 29.47 827 24.42 -1.3 29.7 24 -19.3 -2.8
14:35 998 29.47 827 24.42 -1.6 29.1 24 -19.6 -3.3
14:40 998 29.47 827 24.42 -1.2 29.9 28 -17.5 0.5
14:45 998 29.47 827 24.42 -0.6 30.9 23 -19.5 -3.1
14:50 998 29.47 827 24.42 -1.7 28.9 28 -18.1 -0.6
14:55 998 29.47 827 24.42 -2.1 28.2 26 -19.4 -2.9
15:00 998 29.47 827 24.42 -2.2 28.1 25 -19.8 -3.7
15:05 998 29.47 827 24.42 -2.3 27.9 29 -17.9 -0.2
15:10 998 29.47 827 24.42 -2.4 27.7 30 -17.8 0
15:15 998 29.47 827 24.42 -2.6 27.3 30 -17.8 -0
15:20 998 29.47 827 24.42 -2 28.4 29 -17.9 -0.2
15:25 998 29.47 827 24.42 -2.1 28.2 30 -17.5 0.6
15:30 998 29.47 827 24.42 -2.4 27.7 32 -17.1 1.3
15:35 998 29.47 827 24.42 -2.5 27.4 34 -16.5 2.3
15:40 998 29.47 827 24.42 -2.9 26.8 35 -16.5 2.3
15:45 998 29.47 827 24.42 -3 26.6 33 -17.3 0.9
15:50 998 29.47 827 24.42 -2.8 27 33 -17.1 1.1
15:55 998 29.47 827 24.42 -2.6 27.4 33 -16.9 1.6
16:00 998 29.47 827 24.42 -2.3 27.8 33 -16.6 2.1
16:05 998 29.47 827 24.42 -2.7 27.1 34 -16.4 2.5
16:10 998 29.47 827 24.42 -3 26.7 33 -17.3 0.9
16:15 998 29.47 827 24.42 -3.1 26.4 31 -18.1 -0.6
16:20 998 29.47 827 24.42 -2.7 27.1 34 -16.7 2
16:25 998 29.47 827 24.42 -2.6 27.4 32 -17.1 1.3
16:30 998 29.47 827 24.42 -2.6 27.4 36 -15.9 3.5
16:35 998 29.47 827 24.42 -3 26.6 34 -16.8 1.7
16:40 998 29.47 827 24.42 -3.3 26.1 35 -16.6 2.1
16:45 998 29.47 827 24.42 -3.5 25.7 39 -15.6 3.9
16:50 998 29.47 827 24.42 -3.3 26 36 -16.5 2.2
16:55 998 29.47 827 24.42 -3.3 26.1 33 -17.3 0.8
17:00 998 29.47 827 24.42 -3.2 26.2 31 -18 -0.4
17:05 998 29.47 827 24.42 -3.3 26.1 33 -17.4 0.7
17:10 998 29.47 827 24.42 -3.2 26.2 34 -17.2 1.1
17:15 998 29.47 827 24.42 -3.1 26.4 34 -16.9 1.5
17:20 998 29.47 827 24.42 -3 26.6 33 -17.3 0.9
17:25 998 29.47 827 24.42 -2.9 26.7 32 -17.3 0.9
17:30 998 29.47 827 24.42 -2.9 26.7 32 -17.4 0.7
17:35 998 29.47 827 24.42 -2.9 26.8 34 -16.9 1.6
17:40 998 29.47 827 24.42 -3.3 26 39 -15.3 4.4
17:45 998 29.47 827 24.42 -3.9 25 42 -15 5.1
17:50 998 29.47 827 24.42 -4.2 24.5 45 -14.4 6
17:55 998 29.47 827 24.42 -4.2 24.4 45 -14.6 5.7
18:00 998 29.47 827 24.42 -4.3 24.2 45 -14.5 5.9
18:05 998 29.47 827 24.42 -4.2 24.4 42 -15.2 4.6
18:10 998 29.47 827 24.42 -4.1 24.6 42 -15.1 4.9
18:15 998 29.47 827 24.42 -4.2 24.4 45 -14.5 5.8
18:20 998 29.47 827 24.42 -4.3 24.3 45 -14.6 5.7
18:25 998 29.47 827 24.42 -4.2 24.4 43 -15 5
18:30 998 29.47 827 24.42 -4.2 24.5 43 -15.1 4.8
18:35 998 29.47 827 24.42 -4.1 24.7 41 -15.5 4.1
18:40 998 29.47 827 24.42 -4 24.7 40 -15.6 3.8
18:45 998 29.47 827 24.42 -4.1 24.7 42 -15.3 4.5
18:50 998 29.47 827 24.42 -4.2 24.5 43 -14.9 5.1
18:55 998 29.47 827 24.42 -4.3 24.3 44 -14.9 5.3
19:00 998 29.47 827 24.42 -4.4 24.1 45 -14.6 5.7
19:05 998 29.47 827 24.42 -4.6 23.7 49 -13.8 7.2
19:10 998 29.47 827 24.42 -4.8 23.3 50 -13.8 7.2
19:15 998 29.47 828 24.45 -4.9 23.2 51 -13.6 7.5
19:20 998 29.47 828 24.45 -4.9 23.2 50 -13.8 7.2
19:25 998 29.47 828 24.45 -4.9 23.2 50 -13.7 7.4
19:30 998 29.47 828 24.45 -4.8 23.4 50 -13.7 7.4
19:35 999 29.5 828 24.45 -4.9 23.2 50 -13.8 7.2
19:40 999 29.5 828 24.45 -4.9 23.3 50 -13.7 7.3
19:45 999 29.5 828 24.45 -4.8 23.3 50 -13.7 7.4
19:50 999 29.5 828 24.45 -4.9 23.2 50 -13.7 7.3
19:55 999 29.5 828 24.45 -4.9 23.2 51 -13.6 7.5
20:00 999 29.5 828 24.45 -4.9 23.2 51 -13.6 7.5
20:05 999 29.5 828 24.45 -4.9 23.2 51 -13.5 7.8
20:10 999 29.5 828 24.45 -4.9 23.1 51 -13.6 7.5
20:15 999 29.5 828 24.45 -4.8 23.4 49 -13.9 6.9
20:20 999 29.5 828 24.45 -4.7 23.6 47 -14.4 6
20:25 999 29.5 828 24.45 -4.6 23.8 44 -15.2 4.7
20:30 999 29.5 828 24.45 -4.5 23.8 43 -15.2 4.6
20:35 999 29.5 828 24.45 -4.7 23.6 43 -15.4 4.3
20:40 999 29.5 828 24.45 -4.7 23.6 44 -15.3 4.5
20:45 999 29.5 828 24.45 -4.7 23.5 43 -15.5 4.1
20:50 999 29.5 828 24.45 -4.7 23.6 42 -15.7 3.7
20:55 999 29.5 828 24.45 -4.6 23.7 42 -15.6 3.9
21:00 999 29.5 828 24.45 -4.7 23.6 44 -15.2 4.6
21:05 999 29.5 828 24.45 -4.7 23.5 45 -14.9 5.3
21:10 999 29.5 828 24.45 -4.7 23.5 44 -15.1 4.8
21:15 999 29.5 828 24.45 -4.8 23.4 43 -15.6 4
21:20 999 29.5 828 24.45 -4.7 23.5 41 -16 3.2
21:25 999 29.5 828 24.45 -4.7 23.6 42 -15.7 3.7
21:30 999 29.5 828 24.45 -4.8 23.4 43 -15.6 3.9
21:35 999 29.5 828 24.45 -4.8 23.4 42 -15.8 3.6
21:40 999 29.5 828 24.45 -4.9 23.2 43 -15.6 3.9
21:45 999 29.5 828 24.45 -4.9 23.2 44 -15.3 4.4
21:50 999 29.5 828 24.45 -4.8 23.3 41 -16.1 3
21:55 999 29.5 828 24.45 -4.6 23.6 41 -16 3.3
22:00 999 29.5 828 24.45 -4.6 23.6 41 -16 3.3
22:05 999 29.5 828 24.45 -4.6 23.8 41 -15.9 3.4
22:10 999 29.5 828 24.45 -4.5 23.8 38 -16.7 1.9
22:15 999 29.5 828 24.45 -4.4 24.1 37 -17.1 1.3
22:20 999 29.5 828 24.45 -4.4 24.1 37 -17 1.5
22:25 999 29.5 828 24.45 -4.4 24.1 35 -17.7 0.1
22:30 999 29.5 828 24.45 -4.3 24.2 36 -17.2 1.1
22:35 999 29.5 828 24.45 -4.4 24.1 38 -16.7 1.9
22:40 999 29.5 828 24.45 -4.5 23.8 36 -17.6 0.3
22:45 999 29.5 828 24.45 -4.5 23.9 37 -17.1 1.1
22:50 999 29.5 828 24.45 -4.5 23.9 40 -16.2 2.9
22:55 999 29.5 828 24.45 -4.6 23.8 41 -15.9 3.4
23:00 999 29.5 828 24.45 -4.6 23.7 41 -16 3.1
23:05 999 29.5 828 24.45 -4.6 23.6 41 -15.9 3.4
23:10 999 29.5 828 24.45 -4.6 23.7 44 -15.1 4.8
23:15 999 29.5 828 24.45 -4.7 23.6 46 -14.6 5.8
23:20 999 29.5 828 24.45 -4.8 23.4 51 -13.4 7.9
23:25 999 29.5 828 24.45 -5.2 22.7 53 -13.4 7.9
23:30 999 29.5 828 24.45 -5.1 22.8 50 -14.1 6.6
23:35 999 29.5 828 24.45 -5 23 48 -14.4 6.1
23:40 999 29.5 828 24.45 -4.9 23.1 48 -14.3 6.3
23:45 999 29.5 828 24.45 -4.8 23.3 46 -14.8 5.4
23:50 999 29.5 828 24.45 -4.8 23.3 46 -14.7 5.5
23:55 999 29.5 828 24.45 -4.8 23.3 47 -14.6 5.7
24:00 999 29.5 828 24.45 -4.9 23.2 48 -14.3 6.2